Terminal Aerodrome Forecast
Issued by NWS

Home | Current Version | Previous Version | Text Only | Print | Product List | Glossary On
Versions: 1 2 3 4 5 6 7 8 9 10 11 12 13 14 15 16 17 18 19 20 21 22 23 24 25 26 27 28
000
FTUS43 KDLH 231100
TAFBRD
TAF
KBRD 231124Z 2312/2412 21006KT 1SM BR OVC003
      TEMPO 2312/2314 1/2SM -DZ FG VV002
     FM231700 24007KT 3SM BR BKN011 OVC020
     FM232200 30010KT 5SM -FZDZSN BR OVC012
     FM240200 32011G15KT 4SM -SN BKN009
     FM240900 33015G23KT 2SM -SN BLSN BKN008 OVC019=

USA.gov is the U.S. government's official web portal to all federal, state and local government web resources and services.